createdAt,value
2022-09-01T00:00:50.907Z,15.97
2022-09-01T00:03:26.781Z,16.00
2022-09-01T00:05:58.262Z,15.98
2022-09-01T00:08:28.772Z,15.96
2022-09-01T00:10:59.363Z,15.96
2022-09-01T00:13:31.598Z,15.97
2022-09-01T00:16:04.353Z,16.05
2022-09-01T00:18:36.197Z,15.94
2022-09-01T00:21:06.889Z,15.90
2022-09-01T00:23:38.157Z,15.88
2022-09-01T00:26:08.793Z,15.90
2022-09-01T00:28:40.602Z,15.92
2022-09-01T00:31:12.125Z,15.92
2022-09-01T00:33:43.381Z,15.91
2022-09-01T00:36:14.763Z,15.88
2022-09-01T00:38:45.724Z,15.90
2022-09-01T00:41:17.481Z,15.88
2022-09-01T00:43:51.411Z,15.78
2022-09-01T00:46:24.853Z,15.83
2022-09-01T00:49:11.925Z,15.81
2022-09-01T00:51:45.587Z,15.76
2022-09-01T00:54:19.099Z,15.80
2022-09-01T00:56:53.017Z,15.74
2022-09-01T00:59:24.746Z,15.70
2022-09-01T01:01:56.489Z,15.67
2022-09-01T01:04:27.262Z,15.64
2022-09-01T01:07:01.908Z,15.63
2022-09-01T01:09:35.561Z,15.66
2022-09-01T01:12:07.523Z,15.67
2022-09-01T01:14:39.930Z,15.65
2022-09-01T01:17:10.582Z,15.61
2022-09-01T01:20:07.425Z,15.58
2022-09-01T01:23:15.830Z,15.56
2022-09-01T01:25:52.168Z,15.54
2022-09-01T01:28:26.933Z,15.50
2022-09-01T01:31:01.883Z,15.56
2022-09-01T01:33:37.236Z,15.49
2022-09-01T01:36:10.669Z,15.55
2022-09-01T01:38:47.664Z,15.44
2022-09-01T01:41:21.923Z,15.46
2022-09-01T01:43:52.453Z,15.37
2022-09-01T01:46:23.784Z,15.46
2022-09-01T01:48:55.473Z,15.38
2022-09-01T01:51:27.654Z,15.33
2022-09-01T01:54:00.442Z,15.28
2022-09-01T01:56:31.134Z,15.33
2022-09-01T01:59:02.052Z,15.39
2022-09-01T02:01:32.792Z,15.28
2022-09-01T02:04:05.585Z,15.33
2022-09-01T02:06:36.923Z,15.27
2022-09-01T02:09:07.920Z,15.22
2022-09-01T02:11:38.507Z,15.22
2022-09-01T02:14:10.218Z,15.22
2022-09-01T02:16:42.080Z,15.18
2022-09-01T02:19:12.655Z,15.18
2022-09-01T02:21:44.884Z,15.08
2022-09-01T02:24:15.595Z,14.96
2022-09-01T02:26:47.350Z,14.94
2022-09-01T02:29:21.903Z,14.86
2022-09-01T02:31:54.472Z,14.89
2022-09-01T02:34:27.729Z,14.78
2022-09-01T02:36:58.781Z,14.84
2022-09-01T02:39:34.907Z,14.72
2022-09-01T02:42:05.871Z,14.68
2022-09-01T02:44:41.204Z,14.72
2022-09-01T02:47:09.904Z,14.70
2022-09-01T02:49:42.497Z,14.65
2022-09-01T02:52:14.646Z,14.66
2022-09-01T02:54:46.455Z,14.59
2022-09-01T02:57:18.074Z,14.56
2022-09-01T02:59:48.599Z,14.53
2022-09-01T03:02:19.117Z,14.44
2022-09-01T03:04:50.548Z,14.42
2022-09-01T03:07:22.563Z,14.32
2022-09-01T03:09:53.178Z,14.36
2022-09-01T03:12:24.481Z,14.29
2022-09-01T03:14:54.988Z,14.26
2022-09-01T03:17:25.504Z,14.24
2022-09-01T03:19:56.404Z,14.11
2022-09-01T03:22:28.547Z,14.14
2022-09-01T03:24:59.374Z,14.07
2022-09-01T03:27:29.903Z,14.08
2022-09-01T03:30:00.367Z,14.06
2022-09-01T03:32:30.806Z,14.03
2022-09-01T03:35:01.371Z,13.95
2022-09-01T03:37:31.819Z,13.92
2022-09-01T03:40:04.845Z,13.97
2022-09-01T03:42:36.365Z,13.94
2022-09-01T03:45:11.094Z,13.94
2022-09-01T03:47:42.570Z,13.91
2022-09-01T03:50:21.847Z,13.98
2022-09-01T03:52:58.622Z,13.88
2022-09-01T03:55:32.376Z,13.81
2022-09-01T03:58:06.577Z,13.83
2022-09-01T04:00:42.379Z,13.78
2022-09-01T04:03:19.779Z,13.77
2022-09-01T04:05:53.760Z,13.73
2022-09-01T04:08:33.701Z,13.73
2022-09-01T04:11:07.314Z,13.66
2022-09-01T04:13:40.978Z,13.66
2022-09-01T04:16:44.789Z,13.56
2022-09-01T04:19:21.023Z,13.58
2022-09-01T04:21:56.867Z,13.63
2022-09-01T04:24:30.285Z,13.58
2022-09-01T04:27:03.112Z,13.61
2022-09-01T04:29:33.709Z,13.50
2022-09-01T04:32:07.354Z,13.54
2022-09-01T04:34:39.887Z,13.52
2022-09-01T04:37:14.807Z,13.53
2022-09-01T04:39:56.586Z,13.47
2022-09-01T04:42:29.643Z,13.51
2022-09-01T04:45:02.174Z,13.46
2022-09-01T04:47:36.063Z,13.44
2022-09-01T04:50:09.504Z,13.45
2022-09-01T04:52:41.747Z,13.44
2022-09-01T04:55:19.917Z,13.39
2022-09-01T04:57:51.588Z,13.48
2022-09-01T05:00:23.456Z,13.56
2022-09-01T05:03:01.309Z,13.45
2022-09-01T05:05:42.498Z,13.51
2022-09-01T05:08:18.080Z,13.38
2022-09-01T05:10:54.528Z,13.44
2022-09-01T05:13:27.315Z,13.45
2022-09-01T05:16:03.898Z,13.44
2022-09-01T05:18:35.296Z,13.42
2022-09-01T05:21:10.892Z,13.46
2022-09-01T05:23:42.054Z,13.52
2022-09-01T05:26:18.760Z,13.47
2022-09-01T05:28:53.989Z,13.48
2022-09-01T05:31:28.191Z,13.51
2022-09-01T05:33:58.796Z,13.59
2022-09-01T05:36:30.885Z,13.60
2022-09-01T05:39:02.989Z,13.61
2022-09-01T05:41:37.229Z,13.65
2022-09-01T05:44:09.068Z,13.60
2022-09-01T05:46:42.791Z,13.58
2022-09-01T05:49:16.237Z,13.66
2022-09-01T05:51:50.899Z,13.67
2022-09-01T05:54:26.066Z,13.67
2022-09-01T05:57:12.804Z,13.69
2022-09-01T05:59:34.353Z,13.70
2022-09-01T06:02:06.777Z,13.70
2022-09-01T06:04:40.929Z,13.72
2022-09-01T06:07:16.467Z,13.80
2022-09-01T06:09:49.375Z,13.84
2022-09-01T06:12:21.463Z,13.94
2022-09-01T06:14:54.708Z,13.95
2022-09-01T06:17:30.118Z,13.92
2022-09-01T06:20:00.950Z,13.96
2022-09-01T06:22:31.434Z,14.07
2022-09-01T06:25:03.029Z,14.12
2022-09-01T06:27:37.007Z,14.17
2022-09-01T06:30:10.147Z,14.18
2022-09-01T06:32:42.399Z,14.20
2022-09-01T06:35:15.665Z,14.30
2022-09-01T06:37:47.106Z,14.32
2022-09-01T06:40:18.176Z,14.38
2022-09-01T06:42:52.354Z,14.45
2022-09-01T06:45:25.003Z,14.52
2022-09-01T06:47:57.752Z,14.61
2022-09-01T06:55:38.449Z,14.72
2022-09-01T06:58:14.152Z,14.76
2022-09-01T07:00:45.031Z,14.81
2022-09-01T07:03:16.656Z,14.89
2022-09-01T07:06:05.652Z,14.96
2022-09-01T07:08:23.583Z,15.02
2022-09-01T07:13:28.099Z,15.15
2022-09-01T07:18:31.897Z,15.27
2022-09-01T07:21:09.359Z,15.30
2022-09-01T07:26:24.642Z,15.46
2022-09-01T07:28:47.820Z,15.46
2022-09-01T07:36:32.926Z,15.57
2022-09-01T07:44:12.259Z,15.71
2022-09-01T07:46:43.711Z,15.81
2022-09-01T07:49:32.298Z,15.87
2022-09-01T07:51:48.390Z,15.98
2022-09-01T07:54:19.268Z,16.03
2022-09-01T07:56:50.449Z,16.06
2022-09-01T07:59:21.290Z,16.11
2022-09-01T08:01:52.588Z,16.21
2022-09-01T08:04:23.384Z,16.26
2022-09-01T08:06:55.553Z,16.32
2022-09-01T08:09:37.251Z,16.40
2022-09-01T08:12:02.197Z,16.43
2022-09-01T08:14:34.700Z,16.43
2022-09-01T08:19:37.122Z,16.61
2022-09-01T08:22:07.698Z,16.73
2022-09-01T08:24:38.198Z,16.76
2022-09-01T08:27:08.725Z,16.73
2022-09-01T08:29:39.207Z,16.78
2022-09-01T08:32:11.265Z,16.86
2022-09-01T08:34:43.493Z,16.95
2022-09-01T08:37:14.190Z,16.98
2022-09-01T08:39:46.538Z,17.08
2022-09-01T08:42:32.811Z,17.20
2022-09-01T08:45:07.105Z,17.26
2022-09-01T08:47:58.372Z,17.28
2022-09-01T08:50:12.068Z,17.48
2022-09-01T08:52:48.624Z,17.42
2022-09-01T08:55:23.895Z,17.55
2022-09-01T08:57:59.768Z,17.63
2022-09-01T09:00:33.374Z,17.60
2022-09-01T09:03:40.596Z,17.63
2022-09-01T09:06:25.378Z,17.73
2022-09-01T09:09:08.050Z,17.72
2022-09-01T09:11:56.821Z,17.84
2022-09-01T09:14:56.210Z,17.93
2022-09-01T09:17:29.721Z,18.01
2022-09-01T09:20:02.343Z,18.06
2022-09-01T09:22:33.688Z,18.14
2022-09-01T09:25:19.304Z,18.24
2022-09-01T09:28:00.944Z,18.40
2022-09-01T09:30:29.135Z,18.96
2022-09-01T09:35:41.987Z,20.18
2022-09-01T09:38:25.812Z,20.44
2022-09-01T09:41:17.892Z,20.96
2022-09-01T09:44:11.057Z,21.32
2022-09-01T09:46:43.626Z,21.44
2022-09-01T09:49:34.794Z,21.33
2022-09-01T09:51:58.744Z,21.31
2022-09-01T09:54:31.849Z,20.96
2022-09-01T09:57:08.427Z,20.83
2022-09-01T10:00:01.257Z,20.89
2022-09-01T10:02:33.885Z,20.68
2022-09-01T10:05:30.128Z,20.70
2022-09-01T10:08:01.174Z,20.78
2022-09-01T10:10:41.611Z,20.86
2022-09-01T10:13:15.259Z,20.78
2022-09-01T10:15:55.290Z,20.63
2022-09-01T10:18:35.349Z,20.66
2022-09-01T10:21:14.625Z,20.72
2022-09-01T10:23:45.441Z,20.69
2022-09-01T10:26:27.731Z,20.58
2022-09-01T10:29:12.143Z,20.46
2022-09-01T10:31:43.502Z,20.54
2022-09-01T10:34:19.379Z,20.82
2022-09-01T10:36:55.802Z,21.07
2022-09-01T10:39:27.700Z,20.99
2022-09-01T10:42:02.070Z,21.02
2022-09-01T10:44:36.559Z,21.02
2022-09-01T10:47:14.519Z,20.95
2022-09-01T10:49:51.574Z,21.13
2022-09-01T10:52:45.107Z,21.30
2022-09-01T10:55:25.036Z,21.49
2022-09-01T11:03:30.619Z,21.30
2022-09-01T11:06:14.930Z,21.03
2022-09-01T11:08:46.735Z,21.05
2022-09-01T11:11:38.149Z,20.90
2022-09-01T11:14:23.765Z,20.70
2022-09-01T11:17:15.604Z,20.61
2022-09-01T11:19:50.174Z,20.63
2022-09-01T11:22:36.272Z,21.02
2022-09-01T11:25:40.220Z,21.45
2022-09-01T11:28:26.196Z,21.48
2022-09-01T11:31:08.884Z,21.28
2022-09-01T11:33:46.379Z,21.15
2022-09-01T11:36:23.562Z,21.06
2022-09-01T11:39:07.381Z,21.00
2022-09-01T11:41:59.659Z,21.30
2022-09-01T11:44:49.796Z,23.63
2022-09-01T11:47:35.590Z,27.74
2022-09-01T11:50:09.355Z,31.34
2022-09-01T11:52:41.504Z,33.28
2022-09-01T11:55:12.283Z,32.57
2022-09-01T11:57:42.988Z,31.04
2022-09-01T12:00:16.718Z,28.88
2022-09-01T12:02:55.054Z,26.98
2022-09-01T12:05:34.624Z,25.42
2022-09-01T12:08:08.224Z,24.82
2022-09-01T12:10:40.487Z,23.68
2022-09-01T12:13:23.456Z,23.29
2022-09-01T12:16:16.844Z,23.12
2022-09-01T12:18:32.827Z,22.77
2022-09-01T12:21:07.705Z,23.04
2022-09-01T12:23:45.349Z,22.80
2022-09-01T12:26:24.895Z,22.77
2022-09-01T12:28:55.843Z,22.64
2022-09-01T12:31:27.979Z,22.80
2022-09-01T12:33:58.464Z,22.56
2022-09-01T12:36:32.181Z,22.31
2022-09-01T12:39:24.167Z,22.14
2022-09-01T12:42:23.743Z,21.86
2022-09-01T12:44:57.731Z,21.84
2022-09-01T12:47:41.874Z,21.91
2022-09-01T12:50:18.219Z,21.90
2022-09-01T12:52:54.636Z,21.89
2022-09-01T12:58:02.721Z,21.90
2022-09-01T13:00:36.154Z,22.17
2022-09-01T13:03:21.562Z,22.34
2022-09-01T13:05:54.973Z,22.96
2022-09-01T13:08:28.867Z,23.03
2022-09-01T13:11:05.039Z,23.06
2022-09-01T13:13:36.264Z,23.18
2022-09-01T13:16:13.869Z,23.22
2022-09-01T13:21:17.658Z,23.42
2022-09-01T13:23:50.629Z,23.31
2022-09-01T13:26:21.580Z,22.96
2022-09-01T13:28:53.051Z,22.89
2022-09-01T13:31:30.835Z,22.84
2022-09-01T13:34:22.536Z,22.35
2022-09-01T13:36:46.207Z,22.23
2022-09-01T13:39:00.199Z,22.40
2022-09-01T13:41:31.748Z,22.02
2022-09-01T13:44:02.213Z,21.81
2022-09-01T13:46:32.691Z,21.68
2022-09-01T13:49:04.385Z,21.64
2022-09-01T13:51:36.605Z,21.48
2022-09-01T13:54:07.310Z,21.44
2022-09-01T13:56:38.041Z,21.37
2022-09-01T13:59:08.653Z,21.46
2022-09-01T14:01:40.975Z,21.26
2022-09-01T14:04:12.698Z,21.33
2022-09-01T14:06:44.349Z,21.49
2022-09-01T14:09:17.760Z,21.61
2022-09-01T14:11:48.389Z,21.78
2022-09-01T14:14:19.057Z,21.82
2022-09-01T14:16:50.160Z,21.90
2022-09-01T14:19:20.738Z,22.04
2022-09-01T14:21:51.346Z,22.16
2022-09-01T14:24:22.268Z,22.33
2022-09-01T14:26:52.789Z,22.34
2022-09-01T14:29:23.588Z,22.38
2022-09-01T14:31:55.847Z,22.49
2022-09-01T14:34:26.436Z,22.40
2022-09-01T14:36:58.051Z,22.55
2022-09-01T14:39:28.575Z,22.57
2022-09-01T14:41:59.109Z,22.30
2022-09-01T14:44:29.705Z,22.06
2022-09-01T14:47:00.672Z,21.88
2022-09-01T14:49:37.777Z,21.59
2022-09-01T14:52:10.592Z,21.48
2022-09-01T14:54:42.714Z,21.64
2022-09-01T14:57:36.233Z,21.94
2022-09-01T14:59:46.509Z,22.04
2022-09-01T15:02:17.022Z,21.94
2022-09-01T15:04:47.501Z,21.92
2022-09-01T15:07:18.383Z,21.93
2022-09-01T15:09:48.989Z,21.90
2022-09-01T15:12:20.051Z,21.90
2022-09-01T15:14:50.618Z,21.87
2022-09-01T15:17:21.149Z,21.82
2022-09-01T15:19:51.669Z,21.58
2022-09-01T15:22:22.115Z,21.44
2022-09-01T15:24:52.553Z,21.18
2022-09-01T15:27:24.066Z,21.10
2022-09-01T15:29:55.877Z,20.96
2022-09-01T15:32:28.378Z,20.83
2022-09-01T15:34:58.457Z,20.83
2022-09-01T15:37:28.980Z,20.68
2022-09-01T15:39:59.499Z,20.61
2022-09-01T15:42:30.072Z,20.60
2022-09-01T15:45:00.577Z,20.51
2022-09-01T15:47:31.767Z,20.52
2022-09-01T15:50:03.805Z,20.46
2022-09-01T15:52:36.286Z,20.46
2022-09-01T15:55:07.270Z,20.43
2022-09-01T15:57:38.000Z,20.36
2022-09-01T16:00:11.491Z,20.33
2022-09-01T16:02:42.000Z,20.28
2022-09-01T16:05:13.174Z,20.39
2022-09-01T16:07:44.352Z,20.30
2022-09-01T16:10:15.325Z,20.27
2022-09-01T16:12:47.853Z,20.25
2022-09-01T16:15:22.204Z,20.08
2022-09-01T16:18:01.888Z,20.04
2022-09-01T16:20:38.280Z,19.85
2022-09-01T16:23:17.693Z,19.80
2022-09-01T16:25:48.959Z,19.72
2022-09-01T16:28:25.459Z,19.63
2022-09-01T16:30:59.099Z,19.54
2022-09-01T16:33:29.854Z,19.45
2022-09-01T16:36:14.349Z,19.37
2022-09-01T16:38:51.193Z,19.30
2022-09-01T16:41:50.031Z,19.25
2022-09-01T16:44:29.745Z,19.14
2022-09-01T16:47:25.532Z,19.20
2022-09-01T16:50:17.127Z,19.22
2022-09-01T16:53:02.791Z,19.22
2022-09-01T16:55:37.079Z,19.21
2022-09-01T16:58:21.745Z,19.22
2022-09-01T17:00:57.288Z,19.13
2022-09-01T17:03:42.726Z,19.18
2022-09-01T17:06:13.761Z,19.06
2022-09-01T17:08:55.949Z,18.98
2022-09-01T17:11:29.932Z,18.90
2022-09-01T17:14:02.773Z,18.86
2022-09-01T17:16:42.340Z,18.82
2022-09-01T17:19:18.913Z,18.77
2022-09-01T17:22:03.565Z,18.70
2022-09-01T17:24:55.451Z,18.60
2022-09-01T17:27:43.010Z,18.60
2022-09-01T17:30:13.802Z,18.60
2022-09-01T17:32:56.317Z,18.53
2022-09-01T17:35:41.648Z,18.42
2022-09-01T17:38:31.940Z,18.36
2022-09-01T17:41:22.072Z,18.31
2022-09-01T17:43:56.141Z,18.26
2022-09-01T17:46:38.324Z,18.19
2022-09-01T17:49:12.250Z,18.12
2022-09-01T17:51:57.788Z,18.08
2022-09-01T17:54:57.073Z,18.00
2022-09-01T17:57:45.582Z,17.94
2022-09-01T18:00:24.776Z,17.88
2022-09-01T18:03:02.462Z,17.82
2022-09-01T18:05:44.537Z,17.77
2022-09-01T18:08:34.741Z,17.75
2022-09-01T18:11:17.412Z,17.72
2022-09-01T18:13:53.360Z,17.64
2022-09-01T18:16:28.936Z,17.61
2022-09-01T18:19:03.499Z,17.55
2022-09-01T18:21:36.472Z,17.49
2022-09-01T18:24:15.832Z,17.42
2022-09-01T18:26:49.357Z,17.38
2022-09-01T18:29:21.389Z,17.38
2022-09-01T18:32:00.368Z,17.40
2022-09-01T18:34:51.884Z,17.36
2022-09-01T18:37:40.518Z,17.34
2022-09-01T18:40:28.628Z,17.32
2022-09-01T18:43:16.032Z,17.24
2022-09-01T18:45:54.151Z,17.18
2022-09-01T18:48:56.789Z,17.12
2022-09-01T18:51:45.386Z,17.10
2022-09-01T18:54:18.887Z,17.08
2022-09-01T18:56:58.204Z,17.03
2022-09-01T19:00:18.151Z,16.97
2022-09-01T19:03:02.172Z,16.97
2022-09-01T19:05:57.183Z,16.89
2022-09-01T19:08:46.011Z,16.86
2022-09-01T19:11:31.251Z,16.88
2022-09-01T19:14:26.791Z,16.84
2022-09-01T19:17:03.263Z,16.78
2022-09-01T19:19:56.805Z,16.76
2022-09-01T19:22:42.423Z,16.78
2022-09-01T19:25:20.425Z,16.78
2022-09-01T19:27:53.955Z,16.73
2022-09-01T19:30:24.395Z,16.69
2022-09-01T19:32:56.173Z,16.66
2022-09-01T19:35:27.459Z,16.64
2022-09-01T19:37:57.916Z,16.60
2022-09-01T19:40:31.721Z,16.57
2022-09-01T19:43:05.417Z,16.56
2022-09-01T19:45:41.853Z,16.52
2022-09-01T19:48:30.399Z,16.49
2022-09-01T19:51:04.019Z,16.48
2022-09-01T19:53:49.087Z,16.44
2022-09-01T19:56:41.593Z,16.42
2022-09-01T19:59:37.819Z,16.41
2022-09-01T20:02:11.484Z,16.41
2022-09-01T20:04:45.169Z,16.40
2022-09-01T20:07:34.588Z,16.38
2022-09-01T20:10:23.866Z,16.36
2022-09-01T20:13:15.732Z,16.32
2022-09-01T20:15:54.935Z,16.29
2022-09-01T20:18:31.670Z,16.26
2022-09-01T20:21:05.211Z,16.20
2022-09-01T20:23:38.961Z,16.19
2022-09-01T20:26:27.115Z,16.12
2022-09-01T20:29:03.712Z,16.08
2022-09-01T20:31:46.377Z,16.02
2022-09-01T20:34:20.286Z,16.01
2022-09-01T20:37:05.529Z,16.00
2022-09-01T20:40:00.361Z,15.94
2022-09-01T20:42:43.536Z,16.01
2022-09-01T20:45:17.109Z,15.94
2022-09-01T20:47:59.430Z,15.89
2022-09-01T20:50:45.032Z,15.88
2022-09-01T20:53:27.076Z,15.81
2022-09-01T20:56:00.681Z,15.78
2022-09-01T20:58:37.478Z,15.72
2022-09-01T21:01:29.963Z,15.70
2022-09-01T21:04:08.204Z,15.70
2022-09-01T21:06:44.698Z,15.71
2022-09-01T21:09:27.204Z,15.72
2022-09-01T21:12:17.256Z,15.68
2022-09-01T21:15:13.259Z,15.70
2022-09-01T21:18:02.338Z,15.62
2022-09-01T21:20:47.710Z,15.63
2022-09-01T21:23:20.452Z,15.68
2022-09-01T21:25:51.166Z,15.60
2022-09-01T21:28:25.045Z,15.58
2022-09-01T21:30:59.126Z,15.59
2022-09-01T21:33:32.156Z,15.51
2022-09-01T21:36:03.667Z,15.48
2022-09-01T21:38:34.767Z,15.50
2022-09-01T21:41:10.888Z,15.48
2022-09-01T21:43:41.653Z,15.48
2022-09-01T21:46:14.665Z,15.44
2022-09-01T21:48:45.213Z,15.44
2022-09-01T21:51:15.800Z,15.43
2022-09-01T21:53:46.313Z,15.38
2022-09-01T21:56:16.766Z,15.36
2022-09-01T21:58:49.980Z,15.37
2022-09-01T22:01:19.586Z,15.28
2022-09-01T22:03:50.167Z,15.28
2022-09-01T22:06:22.307Z,15.28
2022-09-01T22:08:52.867Z,15.26
2022-09-01T22:11:23.854Z,15.31
2022-09-01T22:13:54.358Z,15.20
2022-09-01T22:16:25.686Z,15.16
2022-09-01T22:18:56.229Z,15.14
2022-09-01T22:21:27.468Z,15.14
2022-09-01T22:23:58.564Z,15.14
2022-09-01T22:26:31.807Z,15.17
2022-09-01T22:29:04.673Z,15.12
2022-09-01T22:31:38.370Z,15.11
2022-09-01T22:34:09.220Z,15.08
2022-09-01T22:36:42.815Z,15.04
2022-09-01T22:39:14.506Z,15.04
2022-09-01T22:41:45.030Z,15.00
2022-09-01T22:44:16.022Z,15.00
2022-09-01T22:46:46.540Z,14.92
2022-09-01T22:49:17.187Z,14.97
2022-09-01T22:51:47.767Z,14.92
2022-09-01T22:54:18.303Z,14.92
2022-09-01T22:56:49.810Z,14.98
2022-09-01T22:59:20.404Z,14.84
2022-09-01T23:01:51.401Z,14.79
2022-09-01T23:04:23.003Z,14.84
2022-09-01T23:06:54.531Z,14.80
2022-09-01T23:09:25.278Z,14.80
2022-09-01T23:11:56.451Z,14.80
2022-09-01T23:14:27.329Z,14.76
2022-09-01T23:16:57.907Z,14.78
2022-09-01T23:19:28.857Z,14.75
2022-09-01T23:21:59.453Z,14.72
2022-09-01T23:24:30.047Z,14.72
2022-09-01T23:27:00.685Z,14.76
2022-09-01T23:29:31.396Z,14.73
2022-09-01T23:32:02.172Z,14.79
2022-09-01T23:34:33.247Z,14.85
2022-09-01T23:37:05.576Z,14.90
2022-09-01T23:39:36.297Z,14.87
2022-09-01T23:42:06.880Z,14.88
2022-09-01T23:44:37.513Z,14.89
2022-09-01T23:47:08.147Z,14.91
2022-09-01T23:49:40.820Z,14.89
2022-09-01T23:52:11.456Z,15.00
2022-09-01T23:54:42.100Z,14.86
2022-09-01T23:57:12.867Z,14.85
2022-09-01T23:59:43.449Z,14.90
